Time;durP1;ratioP1;P1;durP2;ratioP2;P2;SDS_P1;SDS_P2;PMS_P1;PMS_P2;Temp;Humidity;BMP_temperature;BMP_pressure;BME280_temperature;BME280_humidity;BME280_pressure;Samples;Min_cycle;Max_cycle;Signal;HPM_P1;HPM_P2
2023/09/28 00:02:07;;;;;;;0.00;0.00;;;;;;;19.33;100.00;101156.88;5103397;28;20028;-47
2023/09/28 00:04:32;;;;;;;0.00;0.00;;;;;;;19.27;100.00;101154.00;5095032;28;20478;-44
2023/09/28 00:06:58;;;;;;;0.00;0.00;;;;;;;19.27;100.00;101150.41;5107804;28;20024;-43
2023/09/28 00:09:24;;;;;;;0.00;0.00;;;;;;;19.19;100.00;101161.66;5095544;28;20031;-43
2023/09/28 00:11:50;;;;;;;0.00;0.00;;;;;;;19.13;100.00;101159.88;5107776;28;20031;-44
2023/09/28 00:14:15;;;;;;;0.00;0.00;;;;;;;19.07;100.00;101157.00;5111647;28;20481;-41
2023/09/28 00:16:41;;;;;;;0.00;0.00;;;;;;;19.02;100.00;101162.31;5111032;28;20028;-46
2023/09/28 00:19:06;;;;;;;0.00;0.00;;;;;;;18.96;100.00;101174.16;5110129;28;20035;-46
2023/09/28 00:21:32;;;;;;;0.00;0.00;;;;;;;18.90;100.00;101183.22;5111096;28;20032;-42
2023/09/28 00:23:57;;;;;;;0.00;0.00;;;;;;;18.90;100.00;101185.94;5110618;28;20022;-46
2023/09/28 00:26:23;;;;;;;0.00;0.00;;;;;;;18.87;100.00;101186.41;5110845;28;20031;-41
2023/09/28 00:28:49;;;;;;;0.00;0.00;;;;;;;18.84;100.00;101182.25;5092355;28;20533;-43
2023/09/28 00:31:15;;;;;;;0.00;0.00;;;;;;;18.82;100.00;101195.28;5090728;28;20470;-46
2023/09/28 00:33:42;;;;;;;0.00;0.00;;;;;;;18.81;100.00;101198.25;5090570;28;20493;-45
2023/09/28 00:36:08;;;;;;;0.00;0.00;;;;;;;18.80;100.00;101207.47;5090116;28;20028;-46
2023/09/28 00:38:33;;;;;;;0.00;0.00;;;;;;;18.82;100.00;101205.34;5090387;28;20024;-44
2023/09/28 00:40:58;;;;;;;0.00;0.00;;;;;;;18.81;100.00;101203.69;5090411;28;20028;-46
2023/09/28 00:43:27;;;;;;;0.00;0.00;;;;;;;18.82;100.00;101205.34;5090488;28;20273;-47
2023/09/28 00:45:53;;;;;;;0.00;0.00;;;;;;;18.85;100.00;101207.63;5108008;28;20058;-45
2023/09/28 00:48:19;;;;;;;0.00;0.00;;;;;;;18.90;100.00;101209.66;5111152;28;20429;-46
2023/09/28 00:50:45;;;;;;;0.00;0.00;;;;;;;18.98;100.00;101207.47;5110497;28;20060;-43
2023/09/28 00:53:10;;;;;;;0.00;0.00;;;;;;;19.03;100.00;101215.78;5096443;28;20398;-46
2023/09/28 00:55:37;;;;;;;0.00;0.00;;;;;;;19.14;100.00;101207.91;5111238;28;20039;-46
2023/09/28 00:58:13;;;;;;;0.00;0.00;;;;;;;19.15;100.00;101215.03;5126221;28;20032;-48
2023/09/28 01:00:40;;;;;;;0.00;0.00;;;;;;;19.13;100.00;101222.59;5111335;28;20127;-43
2023/09/28 01:03:06;;;;;;;0.00;0.00;;;;;;;19.10;100.00;101223.06;5090914;28;20031;-42
2023/09/28 01:05:33;;;;;;;0.00;0.00;;;;;;;19.05;100.00;101221.03;5090208;28;20028;-46
2023/09/28 01:08:09;;;;;;;0.00;0.00;;;;;;;18.99;100.00;101228.22;5090542;28;20491;-43
2023/09/28 01:10:36;;;;;;;0.00;0.00;;;;;;;18.94;100.00;101230.81;5090029;28;20023;-45
2023/09/28 01:13:08;;;;;;;0.00;0.00;;;;;;;18.93;100.00;101223.69;5090487;28;20044;-46
2023/09/28 01:15:35;;;;;;;0.00;0.00;;;;;;;18.89;100.00;101230.66;5093415;28;20034;-45
2023/09/28 01:18:01;;;;;;;0.00;0.00;;;;;;;18.87;100.00;101224.59;5102563;28;20047;-43
2023/09/28 01:20:35;;;;;;;0.00;0.00;;;;;;;18.86;100.00;101220.22;5107253;28;20031;-45
2023/09/28 01:23:04;;;;;;;0.00;0.00;;;;;;;18.88;100.00;101218.09;5103335;28;20059;-48
2023/09/28 01:25:30;;;;;;;0.00;0.00;;;;;;;18.88;100.00;101206.34;5102217;28;20125;-50
2023/09/28 01:27:56;;;;;;;0.00;0.00;;;;;;;18.89;100.00;101214.28;5095072;28;20035;-42
2023/09/28 01:30:23;;;;;;;0.00;0.00;;;;;;;18.86;100.00;101217.47;5093758;28;20028;-47
2023/09/28 01:32:48;;;;;;;0.00;0.00;;;;;;;18.86;100.00;101221.03;5110447;28;20028;-47
2023/09/28 01:35:13;;;;;;;0.00;0.00;;;;;;;18.88;100.00;101223.56;5093906;28;20077;-45
2023/09/28 01:37:48;;;;;;;0.00;0.00;;;;;;;18.85;100.00;101223.97;5100563;28;20039;-42
2023/09/28 01:40:14;;;;;;;0.00;0.00;;;;;;;18.83;100.00;101218.78;5093210;28;20055;-44
2023/09/28 01:42:39;;;;;;;0.00;0.00;;;;;;;18.83;100.00;101220.66;5103358;28;20059;-47
2023/09/28 01:45:05;;;;;;;0.00;0.00;;;;;;;18.86;100.00;101218.31;5113010;28;20027;-44
2023/09/28 01:47:31;;;;;;;0.00;0.00;;;;;;;18.84;100.00;101220.44;5112870;28;20062;-41
2023/09/28 01:49:57;;;;;;;0.00;0.00;;;;;;;18.78;100.00;101220.53;5096298;28;20292;-45
2023/09/28 01:52:23;;;;;;;0.00;0.00;;;;;;;18.76;100.00;101219.91;5114146;28;20023;-45
2023/09/28 01:54:48;;;;;;;0.00;0.00;;;;;;;18.75;100.00;101215.53;5099425;27;20024;-45
2023/09/28 01:57:14;;;;;;;0.00;0.00;;;;;;;18.70;100.00;101213.44;5096769;28;20028;-49
2023/09/28 01:59:39;;;;;;;0.00;0.00;;;;;;;18.62;100.00;101225.47;5093192;28;20044;-42
2023/09/28 02:02:05;;;;;;;0.00;0.00;;;;;;;18.60;100.00;101227.59;5092648;28;20119;-45
2023/09/28 02:04:30;;;;;;;0.00;0.00;;;;;;;18.57;100.00;101225.31;5112634;28;20493;-45
2023/09/28 02:06:55;;;;;;;0.00;0.00;;;;;;;18.51;100.00;101220.78;5112784;28;20077;-45
2023/09/28 02:09:21;;;;;;;0.00;0.00;;;;;;;18.49;100.00;101231.06;5102440;28;20505;-45
2023/09/28 02:11:47;;;;;;;0.00;0.00;;;;;;;18.46;100.00;101222.47;5106713;28;20119;-47
2023/09/28 02:14:12;;;;;;;0.00;0.00;;;;;;;18.42;100.00;101216.66;5097515;28;20020;-45
2023/09/28 02:16:38;;;;;;;0.00;0.00;;;;;;;18.38;100.00;101226.34;5104039;28;20322;-46
2023/09/28 02:19:04;;;;;;;0.00;0.00;;;;;;;18.32;100.00;101221.78;5110718;27;20562;-43
2023/09/28 02:21:30;;;;;;;0.00;0.00;;;;;;;18.27;100.00;101219.72;5112560;28;20110;-47
2023/09/28 02:23:58;;;;;;;0.00;0.00;;;;;;;18.19;100.00;101218.16;5111880;28;20565;-47
2023/09/28 02:26:24;;;;;;;0.00;0.00;;;;;;;18.15;100.00;101222.34;5112461;27;20119;-46
2023/09/28 02:28:50;;;;;;;0.00;0.00;;;;;;;18.10;100.00;101226.81;5107231;28;20135;-44
2023/09/28 02:31:15;;;;;;;0.00;0.00;;;;;;;18.07;100.00;101235.44;5091852;28;20032;-46
2023/09/28 02:33:41;;;;;;;0.00;0.00;;;;;;;18.03;100.00;101229.56;5103590;28;20119;-47
2023/09/28 02:36:06;;;;;;;0.00;0.00;;;;;;;18.01;100.00;101231.72;5107858;28;20473;-45
2023/09/28 02:38:32;;;;;;;0.00;0.00;;;;;;;17.93;100.00;101245.56;5108828;28;20051;-44
2023/09/28 02:40:58;;;;;;;0.00;0.00;;;;;;;17.89;100.00;101247.09;5093102;28;20062;-48
2023/09/28 02:43:23;;;;;;;0.00;0.00;;;;;;;17.86;100.00;101255.69;5097915;28;20058;-46
2023/09/28 02:45:49;;;;;;;0.00;0.00;;;;;;;17.80;100.00;101264.72;5113474;28;20023;-47
2023/09/28 02:48:14;;;;;;;0.00;0.00;;;;;;;17.76;100.00;101267.84;5113316;28;20027;-43
2023/09/28 02:50:39;;;;;;;0.00;0.00;;;;;;;17.69;100.00;101272.53;5113287;28;20081;-42
2023/09/28 02:53:06;;;;;;;0.00;0.00;;;;;;;17.69;100.00;101280.69;5095061;28;20035;-43
2023/09/28 02:55:32;;;;;;;0.00;0.00;;;;;;;17.65;100.00;101281.34;5093925;28;20020;-44
2023/09/28 02:57:58;;;;;;;0.00;0.00;;;;;;;17.62;100.00;101288.06;5092846;28;20031;-43
2023/09/28 03:02:51;;;;;;;0.00;0.00;;;;;;;17.56;100.00;101299.78;5093599;28;20032;-45
2023/09/28 03:05:18;;;;;;;0.00;0.00;;;;;;;17.54;100.00;101308.19;5093132;28;20024;-43
2023/09/28 03:07:45;;;;;;;0.00;0.00;;;;;;;17.46;100.00;101310.34;5092328;28;20024;-45
2023/09/28 03:10:11;;;;;;;0.00;0.00;;;;;;;17.42;100.00;101309.09;5092007;28;20020;-47
2023/09/28 03:12:37;;;;;;;0.00;0.00;;;;;;;17.40;100.00;101312.00;5111038;28;20027;-46
2023/09/28 03:15:10;;;;;;;0.00;0.00;;;;;;;17.47;100.00;101314.72;5112722;27;20028;-47
2023/09/28 03:17:36;;;;;;;0.00;0.00;;;;;;;17.48;100.00;101313.66;5105812;28;20076;-46
2023/09/28 03:20:09;;;;;;;0.00;0.00;;;;;;;17.50;100.00;101320.56;5090643;28;20036;-44
2023/09/28 03:22:34;;;;;;;0.00;0.00;;;;;;;17.49;100.00;101309.91;5098566;28;20085;-45
2023/09/28 03:25:01;;;;;;;0.00;0.00;;;;;;;17.58;100.00;101314.03;5094095;28;20714;-45
2023/09/28 03:27:26;;;;;;;0.00;0.00;;;;;;;17.60;100.00;101311.94;5112613;28;20427;-43
2023/09/28 03:29:52;;;;;;;0.00;0.00;;;;;;;17.59;100.00;101313.00;5098840;28;20023;-43
2023/09/28 03:32:17;;;;;;;0.00;0.00;;;;;;;17.62;100.00;101304.41;5108416;28;20063;-44
2023/09/28 03:34:42;;;;;;;0.00;0.00;;;;;;;17.62;100.00;101309.84;5104653;28;20085;-45
2023/09/28 03:37:08;;;;;;;0.00;0.00;;;;;;;17.61;100.00;101308.16;5091443;28;20335;-45
2023/09/28 03:39:33;;;;;;;0.00;0.00;;;;;;;17.67;100.00;101296.41;5089739;28;20350;-44
2023/09/28 03:41:58;;;;;;;0.00;0.00;;;;;;;17.66;100.00;101304.78;5102322;28;20028;-44
2023/09/28 03:44:24;;;;;;;0.00;0.00;;;;;;;17.63;100.00;101308.78;5111029;28;20027;-45
2023/09/28 03:46:49;;;;;;;0.00;0.00;;;;;;;17.66;100.00;101315.66;5108868;28;20027;-44
2023/09/28 03:49:15;;;;;;;0.00;0.00;;;;;;;17.65;100.00;101331.16;5110371;28;20057;-44
2023/09/28 03:51:41;;;;;;;0.00;0.00;;;;;;;17.64;100.00;101329.50;5106796;28;20119;-44
2023/09/28 03:54:07;;;;;;;0.00;0.00;;;;;;;17.51;100.00;101329.56;5109590;28;20477;-45
2023/09/28 03:56:32;;;;;;;0.00;0.00;;;;;;;17.54;100.00;101329.97;5100443;28;20032;-45
2023/09/28 03:58:58;;;;;;;0.00;0.00;;;;;;;17.45;100.00;101322.25;5095229;28;20458;-47
2023/09/28 04:01:23;;;;;;;0.00;0.00;;;;;;;17.44;100.00;101340.47;5107564;28;20054;-46
2023/09/28 04:03:49;;;;;;;0.00;0.00;;;;;;;17.35;100.00;101330.88;5109685;28;20407;-44
2023/09/28 04:06:15;;;;;;;0.00;0.00;;;;;;;17.36;100.00;101337.16;5107837;28;20486;-45
2023/09/28 04:08:40;;;;;;;0.00;0.00;;;;;;;17.44;100.00;101323.31;5106834;28;20100;-45
2023/09/28 04:11:05;;;;;;;0.00;0.00;;;;;;;17.43;100.00;101333.38;5108227;28;20036;-46
2023/09/28 04:13:31;;;;;;;0.00;0.00;;;;;;;17.32;100.00;101342.19;5109580;28;20024;-46
2023/09/28 04:15:56;;;;;;;0.00;0.00;;;;;;;17.25;100.00;101352.28;5107654;28;20661;-49
2023/09/28 04:18:22;;;;;;;0.00;0.00;;;;;;;17.29;100.00;101346.16;5108772;28;20390;-46
2023/09/28 04:20:48;;;;;;;0.00;0.00;;;;;;;17.26;100.00;101349.31;5109400;28;20031;-44
2023/09/28 04:23:13;;;;;;;0.00;0.00;;;;;;;17.29;100.00;101331.72;5109443;28;20024;-44
2023/09/28 04:25:38;;;;;;;0.00;0.00;;;;;;;17.30;100.00;101345.13;5106334;27;20035;-44
2023/09/28 04:28:04;;;;;;;0.00;0.00;;;;;;;17.29;100.00;101365.22;5089985;28;20074;-44
2023/09/28 04:30:30;;;;;;;0.00;0.00;;;;;;;17.33;100.00;101377.34;5088827;28;20032;-45
2023/09/28 04:32:55;;;;;;;0.00;0.00;;;;;;;17.26;100.00;101368.38;5088576;28;20107;-44
2023/09/28 04:35:21;;;;;;;0.00;0.00;;;;;;;17.22;100.00;101364.41;5088866;28;20505;-46
2023/09/28 04:37:47;;;;;;;0.00;0.00;;;;;;;17.17;100.00;101364.22;5089749;28;20040;-45
2023/09/28 04:40:13;;;;;;;0.00;0.00;;;;;;;17.13;100.00;101354.78;5089067;28;20032;-44
2023/09/28 04:42:39;;;;;;;0.00;0.00;;;;;;;17.11;100.00;101346.00;5095578;28;20110;-44
2023/09/28 04:45:05;;;;;;;0.00;0.00;;;;;;;17.14;100.00;101367.38;5097575;28;20024;-45
2023/09/28 04:47:31;;;;;;;0.00;0.00;;;;;;;17.21;100.00;101365.44;5087805;28;20058;-44
2023/09/28 04:49:57;;;;;;;0.00;0.00;;;;;;;17.17;100.00;101364.22;5086867;28;20028;-48
2023/09/28 04:52:22;;;;;;;0.00;0.00;;;;;;;17.13;100.00;101375.72;5093538;28;20019;-46
2023/09/28 04:54:49;;;;;;;0.00;0.00;;;;;;;17.16;100.00;101372.56;5095893;28;20019;-45
2023/09/28 04:57:15;;;;;;;0.00;0.00;;;;;;;17.14;100.00;101372.81;5095251;28;20385;-46
2023/09/28 04:59:41;;;;;;;0.00;0.00;;;;;;;17.21;100.00;101387.19;5107908;28;20304;-42
2023/09/28 05:02:07;;;;;;;0.00;0.00;;;;;;;17.12;100.00;101391.22;5096498;28;20028;-44
2023/09/28 05:04:33;;;;;;;0.00;0.00;;;;;;;17.09;100.00;101397.09;5093508;28;20111;-43
2023/09/28 05:06:59;;;;;;;0.00;0.00;;;;;;;17.05;100.00;101403.97;5096945;28;20114;-45
2023/09/28 05:09:26;;;;;;;0.00;0.00;;;;;;;17.07;100.00;101404.59;5109987;28;20062;-46
2023/09/28 05:11:51;;;;;;;0.00;0.00;;;;;;;17.05;100.00;101395.81;5113214;28;20473;-43
2023/09/28 05:14:16;;;;;;;0.00;0.00;;;;;;;16.94;100.00;101405.44;5113193;28;20055;-43
2023/09/28 05:16:42;;;;;;;0.00;0.00;;;;;;;16.85;100.00;101402.13;5098134;27;20050;-46
2023/09/28 05:19:08;;;;;;;0.00;0.00;;;;;;;16.86;100.00;101398.34;5111805;28;20027;-43
2023/09/28 05:21:33;;;;;;;0.00;0.00;;;;;;;16.81;100.00;101405.47;5100951;28;20438;-46
2023/09/28 05:23:59;;;;;;;0.00;0.00;;;;;;;16.73;100.00;101402.91;5091837;28;20081;-47
2023/09/28 05:26:24;;;;;;;0.00;0.00;;;;;;;16.64;100.00;101411.28;5101197;28;20027;-40
2023/09/28 05:28:49;;;;;;;0.00;0.00;;;;;;;16.59;100.00;101418.41;5097371;28;20108;-46
2023/09/28 05:31:15;;;;;;;0.00;0.00;;;;;;;16.56;100.00;101425.09;5107251;28;20080;-48
2023/09/28 05:33:41;;;;;;;0.00;0.00;;;;;;;16.58;100.00;101424.84;5104332;28;20509;-44
2023/09/28 05:36:07;;;;;;;0.00;0.00;;;;;;;16.58;100.00;101428.41;5098896;28;20032;-50
2023/09/28 05:38:32;;;;;;;0.00;0.00;;;;;;;16.60;100.00;101430.94;5097506;28;20069;-44
2023/09/28 05:40:57;;;;;;;0.00;0.00;;;;;;;16.61;100.00;101421.72;5105708;28;20059;-46
2023/09/28 05:43:23;;;;;;;0.00;0.00;;;;;;;16.60;100.00;101430.94;5092568;28;20032;-46
2023/09/28 05:45:48;;;;;;;0.00;0.00;;;;;;;16.62;100.00;101439.72;5102460;28;20024;-45
2023/09/28 05:48:13;;;;;;;0.00;0.00;;;;;;;16.62;100.00;101437.81;5105412;28;20060;-44
2023/09/28 05:50:40;;;;;;;0.00;0.00;;;;;;;16.73;100.00;101436.38;5090555;28;20108;-46
2023/09/28 05:53:05;;;;;;;0.00;0.00;;;;;;;16.73;100.00;101440.97;5092290;28;20116;-46
2023/09/28 05:55:31;;;;;;;0.00;0.00;;;;;;;16.62;100.00;101429.66;5100852;28;20532;-44
2023/09/28 05:57:57;;;;;;;0.00;0.00;;;;;;;16.62;100.00;101428.84;5099700;28;20125;-49
2023/09/28 06:00:22;;;;;;;0.00;0.00;;;;;;;16.57;100.00;101434.91;5099740;28;20048;-47
2023/09/28 06:02:48;;;;;;;0.00;0.00;;;;;;;16.57;100.00;101437.59;5098187;28;20020;-46
2023/09/28 06:05:13;;;;;;;0.00;0.00;;;;;;;16.62;100.00;101439.72;5099868;27;20063;-45
2023/09/28 06:07:39;;;;;;;0.00;0.00;;;;;;;16.57;100.00;101440.31;5094169;28;20062;-45
2023/09/28 06:10:08;;;;;;;0.00;0.00;;;;;;;16.64;100.00;101449.34;5100648;28;20331;-43
2023/09/28 06:12:33;;;;;;;0.00;0.00;;;;;;;16.78;100.00;101444.78;5100716;28;20393;-45
2023/09/28 06:14:59;;;;;;;0.00;0.00;;;;;;;16.81;100.00;101452.50;5101470;28;20028;-47
2023/09/28 06:17:24;;;;;;;0.00;0.00;;;;;;;16.75;100.00;101447.88;5101763;28;20024;-44
2023/09/28 06:19:50;;;;;;;0.00;0.00;;;;;;;16.78;100.00;101454.81;5102125;28;20027;-46
2023/09/28 06:22:15;;;;;;;0.00;0.00;;;;;;;16.78;100.00;101469.22;5099513;28;20046;-44
2023/09/28 06:24:40;;;;;;;0.00;0.00;;;;;;;16.78;100.00;101465.69;5101410;28;20469;-44
2023/09/28 06:27:06;;;;;;;0.00;0.00;;;;;;;16.78;100.00;101461.09;5103934;28;20458;-43
2023/09/28 06:29:32;;;;;;;0.00;0.00;;;;;;;16.84;100.00;101470.28;5099950;28;20042;-46
2023/09/28 06:31:58;;;;;;;0.00;0.00;;;;;;;16.83;100.00;101469.44;5102634;28;20107;-42
2023/09/28 06:34:23;;;;;;;0.00;0.00;;;;;;;16.84;100.00;101478.44;5099908;28;20118;-43
2023/09/28 06:36:49;;;;;;;0.00;0.00;;;;;;;16.87;100.00;101481.56;5102729;28;20110;-44
2023/09/28 06:39:14;;;;;;;0.00;0.00;;;;;;;16.94;100.00;101488.91;5104354;28;20032;-47
2023/09/28 06:41:40;;;;;;;0.00;0.00;;;;;;;16.88;100.00;101488.69;5092719;28;20457;-45
2023/09/28 06:44:06;;;;;;;0.00;0.00;;;;;;;16.93;100.00;101492.66;5093800;28;20421;-44
2023/09/28 06:46:31;;;;;;;0.00;0.00;;;;;;;16.86;100.00;101493.50;5093136;28;20040;-45
2023/09/28 06:48:56;;;;;;;0.00;0.00;;;;;;;16.86;100.00;101489.94;5103596;28;20088;-45
2023/09/28 06:51:22;;;;;;;0.00;0.00;;;;;;;16.91;100.00;101492.06;5089459;28;20462;-47
2023/09/28 06:53:47;;;;;;;0.00;0.00;;;;;;;16.96;100.00;101492.25;5105093;28;20164;-48
2023/09/28 06:56:13;;;;;;;0.00;0.00;;;;;;;17.02;100.00;101483.25;5090451;28;20024;-42
2023/09/28 06:58:38;;;;;;;0.00;0.00;;;;;;;17.05;100.00;101471.97;5094847;28;20036;-43
2023/09/28 07:01:03;;;;;;;0.00;0.00;;;;;;;17.03;100.00;101476.75;5102982;28;20048;-46
2023/09/28 07:03:31;;;;;;;0.00;0.00;;;;;;;17.03;100.00;101474.88;5092065;28;20527;-46
2023/09/28 07:05:56;;;;;;;0.00;0.00;;;;;;;17.09;100.00;101484.09;5095357;28;20445;-44
2023/09/28 07:08:22;;;;;;;0.00;0.00;;;;;;;17.11;100.00;101488.28;5097766;28;20032;-45
2023/09/28 07:10:47;;;;;;;0.00;0.00;;;;;;;17.06;100.00;101488.09;5087760;27;20181;-46
2023/09/28 07:13:12;;;;;;;0.00;0.00;;;;;;;17.05;100.00;101510.88;5092662;28;20032;-40
2023/09/28 07:15:38;;;;;;;0.00;0.00;;;;;;;17.12;100.00;101513.59;5106881;27;20055;-43
2023/09/28 07:18:03;;;;;;;0.00;0.00;;;;;;;17.18;100.00;101514.66;5104805;28;20147;-45
2023/09/28 07:20:29;;;;;;;0.00;0.00;;;;;;;17.22;100.00;101522.19;5106713;28;20036;-45
2023/09/28 07:22:56;;;;;;;0.00;0.00;;;;;;;17.13;100.00;101519.88;5105407;28;20457;-46
2023/09/28 07:25:21;;;;;;;0.00;0.00;;;;;;;17.25;100.00;101532.66;5105315;27;20701;-48
2023/09/28 07:27:49;;;;;;;0.00;0.00;;;;;;;17.26;100.00;101522.59;5101549;28;20451;-46
2023/09/28 07:30:15;;;;;;;0.00;0.00;;;;;;;17.29;100.00;101531.16;5102626;28;20145;-45
2023/09/28 07:32:41;;;;;;;0.00;0.00;;;;;;;17.30;100.00;101527.41;5102470;28;20191;-44
2023/09/28 07:35:09;;;;;;;0.00;0.00;;;;;;;17.30;100.00;101530.13;5105195;28;20042;-43
2023/09/28 07:37:35;;;;;;;0.00;0.00;;;;;;;17.29;100.00;101539.31;5103767;28;20038;-46
2023/09/28 07:40:01;;;;;;;0.00;0.00;;;;;;;17.21;100.00;101534.09;5105861;28;20019;-46
2023/09/28 07:42:27;;;;;;;0.00;0.00;;;;;;;17.25;100.00;101538.09;5105066;27;20066;-43
2023/09/28 07:44:52;;;;;;;0.00;0.00;;;;;;;17.26;100.00;101544.34;5104897;28;20059;-46
2023/09/28 07:47:21;;;;;;;0.00;0.00;;;;;;;17.27;100.00;101563.19;5101235;28;20142;-45
2023/09/28 07:49:47;;;;;;;0.00;0.00;;;;;;;17.26;100.00;101566.94;5101768;28;20374;-45
2023/09/28 07:52:12;;;;;;;0.00;0.00;;;;;;;17.26;100.00;101550.63;5104794;28;20497;-45
2023/09/28 07:54:38;;;;;;;0.00;0.00;;;;;;;17.28;100.00;101543.09;5104358;28;20028;-43
2023/09/28 07:57:04;;;;;;;0.00;0.00;;;;;;;17.30;100.00;101541.00;5105739;28;20065;-47
2023/09/28 07:59:33;;;;;;;0.00;0.00;;;;;;;17.34;100.00;101544.97;5102841;28;20078;-48
2023/09/28 08:01:58;;;;;;;0.00;0.00;;;;;;;17.34;100.00;101553.13;5097427;28;20028;-47
2023/09/28 08:04:24;;;;;;;0.00;0.00;;;;;;;17.41;100.00;101557.75;5090025;28;20551;-44
2023/09/28 08:06:49;;;;;;;0.00;0.00;;;;;;;17.43;100.00;101552.91;5091147;28;20112;-46
2023/09/28 08:09:14;;;;;;;0.00;0.00;;;;;;;17.52;100.00;101565.28;5090867;28;20028;-42
2023/09/28 08:11:41;;;;;;;0.00;0.00;;;;;;;17.49;100.00;101576.59;5090948;28;20153;-46
2023/09/28 08:14:08;;;;;;;0.00;0.00;;;;;;;17.49;100.00;101571.97;5089864;28;20059;-44
2023/09/28 08:16:34;;;;;;;0.00;0.00;;;;;;;17.55;100.00;101567.56;5091518;28;20028;-46
2023/09/28 08:18:59;;;;;;;0.00;0.00;;;;;;;17.65;100.00;101572.59;5090964;28;20023;-44
2023/09/28 08:21:26;;;;;;;0.00;0.00;;;;;;;17.77;100.00;101568.16;5091114;28;20277;-45
2023/09/28 08:23:51;;;;;;;0.00;0.00;;;;;;;18.07;100.00;101559.56;5091045;28;20093;-47
2023/09/28 08:26:17;;;;;;;0.00;0.00;;;;;;;18.54;100.00;101561.06;5090890;28;20074;-48
2023/09/28 08:28:42;;;;;;;0.00;0.00;;;;;;;18.80;100.00;101559.25;5090598;28;20036;-46
2023/09/28 08:31:10;;;;;;;0.00;0.00;;;;;;;18.86;100.00;101561.13;5090619;28;20020;-44
2023/09/28 08:33:35;;;;;;;0.00;0.00;;;;;;;18.77;100.00;101556.97;5090350;28;20032;-45
2023/09/28 08:36:01;;;;;;;0.00;0.00;;;;;;;18.49;100.00;101555.41;5090983;28;20081;-45
2023/09/28 08:38:26;;;;;;;0.00;0.00;;;;;;;18.37;100.00;101562.59;5093350;28;20020;-44
2023/09/28 08:40:59;;;;;;;0.00;0.00;;;;;;;18.35;100.00;101565.56;5110577;28;20028;-46
2023/09/28 08:43:26;;;;;;;0.00;0.00;;;;;;;18.48;100.00;101570.09;5110807;28;20019;-48
2023/09/28 08:45:52;;;;;;;0.00;0.00;;;;;;;18.42;100.00;101573.69;5108356;28;20023;-41
2023/09/28 08:48:21;;;;;;;0.00;0.00;;;;;;;18.40;100.00;101578.50;5110438;28;20039;-42
2023/09/28 08:50:49;;;;;;;0.00;0.00;;;;;;;18.28;100.00;101585.69;5110751;28;20128;-44
2023/09/28 08:53:14;;;;;;;0.00;0.00;;;;;;;18.31;100.00;101590.72;5111003;28;20032;-46
2023/09/28 08:55:40;;;;;;;0.00;0.00;;;;;;;18.08;100.00;101597.47;5109689;28;20503;-43
2023/09/28 08:58:06;;;;;;;0.00;0.00;;;;;;;18.09;100.00;101610.06;5110718;28;20054;-44
2023/09/28 09:00:31;;;;;;;0.00;0.00;;;;;;;18.17;100.00;101601.66;5110544;28;20047;-48
2023/09/28 09:02:58;;;;;;;0.00;0.00;;;;;;;18.02;100.00;101609.22;5109689;28;20035;-43
2023/09/28 09:05:29;;;;;;;0.00;0.00;;;;;;;17.99;100.00;101609.66;5109488;28;20062;-46
2023/09/28 09:07:55;;;;;;;0.00;0.00;;;;;;;17.97;100.00;101606.31;5110859;28;20356;-46
2023/09/28 09:10:20;;;;;;;0.00;0.00;;;;;;;18.01;100.00;101613.00;5109110;28;20066;-46
2023/09/28 09:12:45;;;;;;;0.00;0.00;;;;;;;17.98;100.00;101597.94;5110566;28;20435;-51
2023/09/28 09:15:13;;;;;;;0.00;0.00;;;;;;;18.09;100.00;101598.31;5110432;28;20060;-43
2023/09/28 09:17:38;;;;;;;0.00;0.00;;;;;;;17.99;100.00;101593.31;5110778;28;20354;-44
2023/09/28 09:20:08;;;;;;;0.00;0.00;;;;;;;18.18;100.00;101597.88;5110373;28;20024;-46
2023/09/28 09:22:33;;;;;;;0.00;0.00;;;;;;;18.35;100.00;101602.84;5110889;28;20496;-46
2023/09/28 09:24:59;;;;;;;0.00;0.00;;;;;;;18.35;100.00;101613.75;5110785;28;20023;-42
2023/09/28 09:27:27;;;;;;;0.00;0.00;;;;;;;18.41;100.00;101605.56;5110442;28;20081;-43
2023/09/28 09:29:56;;;;;;;0.00;0.00;;;;;;;18.47;100.00;101595.69;5094969;28;20063;-45
2023/09/28 09:32:22;;;;;;;0.00;0.00;;;;;;;18.42;100.00;101587.31;5090304;28;20028;-45
2023/09/28 09:34:47;;;;;;;0.00;0.00;;;;;;;18.29;100.00;101598.25;5089491;28;20505;-46
2023/09/28 09:37:14;;;;;;;0.00;0.00;;;;;;;18.37;100.00;101601.56;5088773;28;20471;-47
2023/09/28 09:39:39;;;;;;;0.00;0.00;;;;;;;18.42;100.00;101587.31;5091057;28;20111;-45
2023/09/28 09:42:05;;;;;;;0.00;0.00;;;;;;;18.43;100.00;101603.47;5092573;28;20116;-44
2023/09/28 09:44:30;;;;;;;0.00;0.00;;;;;;;18.39;100.00;101587.75;5093805;28;20405;-46
2023/09/28 09:46:56;;;;;;;0.00;0.00;;;;;;;18.27;100.00;101589.47;5093887;28;20114;-45
2023/09/28 09:49:24;;;;;;;0.00;0.00;;;;;;;18.33;100.00;101594.91;5094016;28;20474;-46
2023/09/28 09:51:50;;;;;;;0.00;0.00;;;;;;;18.27;100.00;101594.91;5093733;28;20555;-46
2023/09/28 09:54:16;;;;;;;0.00;0.00;;;;;;;18.24;100.00;101598.91;5093984;28;20020;-44
2023/09/28 09:56:47;;;;;;;0.00;0.00;;;;;;;18.12;100.00;101589.72;5092715;28;20024;-45
2023/09/28 09:59:15;;;;;;;0.00;0.00;;;;;;;18.11;100.00;101596.22;5093397;28;20064;-44
2023/09/28 10:01:42;;;;;;;0.00;0.00;;;;;;;18.18;100.00;101606.03;5094624;28;20048;-43
2023/09/28 10:04:12;;;;;;;0.00;0.00;;;;;;;18.19;100.00;101615.91;5094777;28;20104;-42
2023/09/28 10:06:39;;;;;;;0.00;0.00;;;;;;;18.07;100.00;101620.31;5092473;28;20111;-43
2023/09/28 10:09:10;;;;;;;0.00;0.00;;;;;;;18.02;100.00;101625.56;5091758;28;20024;-46
2023/09/28 10:11:38;;;;;;;0.00;0.00;;;;;;;18.06;100.00;101621.38;5093047;28;20024;-46
2023/09/28 10:14:04;;;;;;;0.00;0.00;;;;;;;18.13;100.00;101616.75;5093618;28;20028;-45
2023/09/28 10:16:29;;;;;;;0.00;0.00;;;;;;;18.23;100.00;101612.75;5093428;28;20043;-45
2023/09/28 10:18:55;;;;;;;0.00;0.00;;;;;;;18.30;100.00;101629.91;5091419;28;20426;-45
2023/09/28 10:21:21;;;;;;;0.00;0.00;;;;;;;18.23;100.00;101610.84;5091269;28;20058;-47
2023/09/28 10:23:47;;;;;;;0.00;0.00;;;;;;;18.21;100.00;101619.22;5093331;28;20307;-47
2023/09/28 10:26:15;;;;;;;0.00;0.00;;;;;;;18.24;100.00;101611.69;5092321;28;20470;-48
2023/09/28 10:29:06;;;;;;;0.00;0.00;;;;;;;18.33;100.00;101599.53;5093578;28;20042;-44
2023/09/28 10:31:34;;;;;;;0.00;0.00;;;;;;;18.40;100.00;101619.38;5093661;28;20105;-47
2023/09/28 10:34:04;;;;;;;0.00;0.00;;;;;;;18.49;100.00;101629.00;5093504;28;20020;-44
2023/09/28 10:36:30;;;;;;;0.00;0.00;;;;;;;18.38;100.00;101629.69;5093633;28;20497;-43
2023/09/28 10:39:15;;;;;;;0.00;0.00;;;;;;;18.27;100.00;101620.25;5093697;28;20032;-44
2023/09/28 10:41:50;;;;;;;0.00;0.00;;;;;;;18.28;100.00;101618.41;5093760;28;20036;-45
2023/09/28 10:44:17;;;;;;;0.00;0.00;;;;;;;18.20;100.00;101612.13;5095900;28;20027;-45
2023/09/28 10:46:44;;;;;;;0.00;0.00;;;;;;;18.34;100.00;101617.53;5093141;28;20655;-43
2023/09/28 10:49:13;;;;;;;0.00;0.00;;;;;;;18.36;100.00;101615.44;5092161;28;20038;-44
2023/09/28 10:51:38;;;;;;;0.00;0.00;;;;;;;18.43;100.00;101616.22;5091664;28;20073;-46
2023/09/28 10:54:08;;;;;;;0.00;0.00;;;;;;;18.32;100.00;101614.19;5092608;28;20024;-44
2023/09/28 10:56:34;;;;;;;0.00;0.00;;;;;;;18.42;100.00;101611.84;5092160;28;20034;-42
2023/09/28 10:59:01;;;;;;;0.00;0.00;;;;;;;18.33;100.00;101634.94;5092516;28;20113;-45
2023/09/28 11:01:27;;;;;;;0.00;0.00;;;;;;;18.29;100.00;101641.84;5092357;28;20432;-44
2023/09/28 11:03:53;;;;;;;0.00;0.00;;;;;;;18.31;100.00;101642.50;5092150;28;20020;-48
2023/09/28 11:06:19;;;;;;;0.00;0.00;;;;;;;18.21;100.00;101649.19;5092626;28;20112;-45
2023/09/28 11:08:45;;;;;;;0.00;0.00;;;;;;;18.20;100.00;101644.81;5097995;28;20364;-44
2023/09/28 11:11:11;;;;;;;0.00;0.00;;;;;;;18.25;100.00;101652.34;5112871;28;20024;-44
2023/09/28 11:13:37;;;;;;;0.00;0.00;;;;;;;18.25;100.00;101652.34;5112694;28;20016;-47
2023/09/28 11:16:03;;;;;;;0.00;0.00;;;;;;;18.15;100.00;101652.78;5112889;28;20020;-44